createdAt,value
2018-12-23T00:01:23.547Z,16.50
2018-12-23T00:03:51.005Z,17.50
2018-12-23T00:06:18.497Z,14.60
2018-12-23T00:08:45.956Z,15.20
2018-12-23T00:11:13.506Z,15.47
2018-12-23T00:13:40.951Z,17.03
2018-12-23T00:16:08.419Z,15.70
2018-12-23T00:18:35.878Z,15.10
2018-12-23T00:21:03.367Z,15.13
2018-12-23T00:23:30.823Z,18.77
2018-12-23T00:25:58.291Z,15.93
2018-12-23T00:28:25.748Z,18.30
2018-12-23T00:30:53.209Z,18.23
2018-12-23T00:33:20.661Z,18.87
2018-12-23T00:35:48.167Z,19.77
2018-12-23T00:38:15.625Z,18.07
2018-12-23T00:40:43.076Z,17.73
2018-12-23T00:43:10.617Z,20.93
2018-12-23T00:45:38.054Z,21.60
2018-12-23T00:48:05.547Z,20.73
2018-12-23T00:50:33.027Z,20.90
2018-12-23T00:53:00.495Z,21.00
2018-12-23T00:55:27.950Z,21.70
2018-12-23T00:57:55.408Z,21.53
2018-12-23T01:00:22.876Z,21.17
2018-12-23T01:02:50.354Z,21.23
2018-12-23T01:05:17.822Z,19.77
2018-12-23T01:07:45.305Z,21.20
2018-12-23T01:10:12.783Z,19.43
2018-12-23T01:12:40.266Z,20.60
2018-12-23T01:15:07.747Z,19.87
2018-12-23T01:17:35.241Z,18.27
2018-12-23T01:20:02.719Z,19.07
2018-12-23T01:22:30.171Z,18.50
2018-12-23T01:24:57.615Z,20.87
2018-12-23T01:27:25.071Z,22.10
2018-12-23T01:29:52.522Z,20.93
2018-12-23T01:32:20.010Z,17.00
2018-12-23T01:34:47.532Z,18.00
2018-12-23T01:37:14.987Z,23.10
2018-12-23T01:39:42.461Z,21.53
2018-12-23T01:42:09.926Z,17.97
2018-12-23T01:44:37.411Z,24.57
2018-12-23T01:47:04.888Z,17.50
2018-12-23T01:49:32.371Z,18.50
2018-12-23T01:51:59.843Z,18.53
2018-12-23T01:54:27.336Z,17.67
2018-12-23T01:56:54.823Z,17.20
2018-12-23T01:59:22.290Z,18.30
2018-12-23T02:01:49.744Z,19.27
2018-12-23T02:04:17.227Z,20.93
2018-12-23T02:06:44.692Z,18.73
2018-12-23T02:09:12.288Z,21.67
2018-12-23T02:11:39.751Z,15.07
2018-12-23T02:14:07.217Z,18.77
2018-12-23T02:16:34.763Z,18.83
2018-12-23T02:19:02.218Z,19.30
2018-12-23T02:21:29.764Z,20.00
2018-12-23T02:23:57.223Z,17.67
2018-12-23T02:26:24.699Z,16.43
2018-12-23T02:28:52.161Z,18.37
2018-12-23T02:31:19.621Z,18.40
2018-12-23T02:33:47.099Z,19.50
2018-12-23T02:36:14.557Z,18.43
2018-12-23T02:38:42.042Z,18.13
2018-12-23T02:41:09.516Z,16.97
2018-12-23T02:43:36.975Z,16.97
2018-12-23T02:46:04.467Z,20.13
2018-12-23T02:48:31.916Z,22.93
2018-12-23T02:50:59.407Z,18.97
2018-12-23T02:53:26.877Z,17.50
2018-12-23T02:55:54.425Z,18.37
2018-12-23T02:58:21.903Z,21.13
2018-12-23T03:00:49.362Z,19.83
2018-12-23T03:03:16.839Z,18.93
2018-12-23T03:05:44.287Z,15.43
2018-12-23T03:08:11.749Z,17.67
2018-12-23T03:10:39.223Z,15.67
2018-12-23T03:13:07.184Z,20.63
2018-12-23T03:15:34.660Z,20.50
2018-12-23T03:18:02.124Z,18.37
2018-12-23T03:20:29.601Z,18.17
2018-12-23T03:22:57.054Z,16.63
2018-12-23T03:25:24.523Z,19.73
2018-12-23T03:27:52.001Z,15.83
2018-12-23T03:30:19.480Z,19.03
2018-12-23T03:32:46.940Z,18.73
2018-12-23T03:35:14.476Z,16.90
2018-12-23T03:37:41.932Z,16.67
2018-12-23T03:40:09.424Z,19.67
2018-12-23T03:42:36.864Z,17.77
2018-12-23T03:45:04.555Z,20.20
2018-12-23T03:47:32.049Z,17.63
2018-12-23T03:49:59.511Z,14.57
2018-12-23T03:52:27.065Z,14.13
2018-12-23T03:54:54.624Z,15.83
2018-12-23T03:57:22.103Z,13.80
2018-12-23T03:59:49.679Z,14.20
2018-12-23T04:02:17.135Z,13.57
2018-12-23T04:04:44.596Z,17.03
2018-12-23T04:07:12.066Z,19.93
2018-12-23T04:09:39.624Z,19.50
2018-12-23T04:12:07.135Z,20.70
2018-12-23T04:14:34.595Z,18.33
2018-12-23T04:17:02.056Z,21.30
2018-12-23T04:19:29.658Z,19.17
2018-12-23T04:21:57.207Z,15.70
2018-12-23T04:24:24.688Z,18.53
2018-12-23T04:26:52.147Z,18.50
2018-12-23T04:29:19.596Z,19.33
2018-12-23T04:31:47.053Z,19.07
2018-12-23T04:34:14.515Z,16.07
2018-12-23T04:36:41.974Z,19.70
2018-12-23T04:39:09.435Z,16.80
2018-12-23T04:41:36.987Z,19.23
2018-12-23T04:44:04.452Z,18.53
2018-12-23T04:46:32.000Z,16.77
2018-12-23T04:48:59.456Z,14.53
2018-12-23T04:51:26.911Z,20.40
2018-12-23T04:53:54.368Z,23.30
2018-12-23T04:56:21.835Z,19.50
2018-12-23T04:58:49.295Z,20.47
2018-12-23T05:01:16.773Z,22.17
2018-12-23T05:03:44.226Z,22.70
2018-12-23T05:06:11.679Z,17.10
2018-12-23T05:08:39.127Z,16.03
2018-12-23T05:11:06.581Z,18.03
2018-12-23T05:13:34.415Z,21.30
2018-12-23T05:16:02.087Z,17.07
2018-12-23T05:18:29.556Z,24.20
2018-12-23T05:20:57.014Z,20.53
2018-12-23T05:23:24.480Z,19.83
2018-12-23T05:25:51.978Z,16.07
2018-12-23T05:28:20.842Z,20.87
2018-12-23T05:30:48.558Z,18.87
2018-12-23T05:33:16.015Z,20.90
2018-12-23T05:35:43.486Z,17.17
2018-12-23T05:38:10.968Z,16.63
2018-12-23T05:40:38.406Z,19.07
2018-12-23T05:43:05.896Z,18.57
2018-12-23T05:45:33.363Z,18.17
2018-12-23T05:48:00.783Z,19.10
2018-12-23T05:50:28.243Z,20.57
2018-12-23T05:52:55.711Z,16.67
2018-12-23T05:55:23.887Z,18.87
2018-12-23T05:57:52.372Z,19.87
2018-12-23T06:00:19.867Z,14.50
2018-12-23T06:02:47.320Z,15.03
2018-12-23T06:05:14.806Z,18.73
2018-12-23T06:07:42.286Z,20.43
2018-12-23T06:10:09.761Z,14.87
2018-12-23T06:12:37.243Z,15.43
2018-12-23T06:15:04.719Z,19.10
2018-12-23T06:17:32.187Z,12.03
2018-12-23T06:19:59.662Z,20.60
2018-12-23T06:22:27.121Z,13.87
2018-12-23T06:24:54.579Z,15.53
2018-12-23T06:27:22.051Z,19.07
2018-12-23T06:29:49.507Z,15.97
2018-12-23T06:32:16.956Z,19.10
2018-12-23T06:34:44.422Z,17.80
2018-12-23T06:37:11.869Z,17.00
2018-12-23T06:39:39.334Z,19.13
2018-12-23T06:42:06.873Z,15.93
2018-12-23T06:44:34.303Z,16.80
2018-12-23T06:47:01.774Z,15.80
2018-12-23T06:49:29.286Z,12.73
2018-12-23T06:51:56.736Z,14.17
2018-12-23T06:54:24.223Z,15.93
2018-12-23T06:56:51.712Z,18.00
2018-12-23T06:59:19.169Z,13.43
2018-12-23T07:01:46.641Z,14.93
2018-12-23T07:04:14.124Z,14.37
2018-12-23T07:06:41.571Z,17.57
2018-12-23T07:09:09.027Z,11.17
2018-12-23T07:11:36.482Z,16.93
2018-12-23T07:14:03.968Z,14.07
2018-12-23T07:16:31.419Z,13.27
2018-12-23T07:18:58.867Z,16.77
2018-12-23T07:21:26.319Z,12.13
2018-12-23T07:23:53.775Z,15.47
2018-12-23T07:26:21.230Z,15.90
2018-12-23T07:28:48.695Z,17.20
2018-12-23T07:31:16.146Z,15.37
2018-12-23T07:33:43.599Z,16.33
2018-12-23T07:36:11.062Z,15.40
2018-12-23T07:38:38.571Z,13.90
2018-12-23T07:41:06.039Z,19.77
2018-12-23T07:43:33.531Z,16.30
2018-12-23T07:46:00.975Z,19.33
2018-12-23T07:48:28.453Z,15.13
2018-12-23T07:50:55.904Z,17.23
2018-12-23T07:53:23.376Z,14.87
2018-12-23T07:55:50.820Z,11.27
2018-12-23T07:58:18.607Z,14.77
2018-12-23T08:00:46.066Z,14.60
2018-12-23T08:03:13.551Z,22.20
2018-12-23T08:05:41.012Z,23.47
2018-12-23T08:08:08.494Z,20.00
2018-12-23T08:10:35.954Z,21.30
2018-12-23T08:13:03.419Z,19.13
2018-12-23T08:15:30.871Z,19.70
2018-12-23T08:17:58.333Z,18.50
2018-12-23T08:20:25.782Z,19.80
2018-12-23T08:22:53.247Z,17.07
2018-12-23T08:25:20.703Z,18.07
2018-12-23T08:27:48.154Z,20.00
2018-12-23T08:30:15.631Z,16.67
2018-12-23T08:32:43.071Z,9.63
2018-12-23T08:35:10.564Z,14.83
2018-12-23T08:37:44.520Z,19.27
2018-12-23T08:40:07.503Z,19.43
2018-12-23T08:42:34.975Z,14.37
2018-12-23T08:45:02.440Z,13.80
2018-12-23T08:47:29.899Z,22.80
2018-12-23T08:49:57.367Z,13.63
2018-12-23T08:52:24.808Z,21.07
2018-12-23T08:54:52.271Z,20.50
2018-12-23T08:57:19.731Z,22.07
2018-12-23T08:59:47.171Z,14.27
2018-12-23T09:02:14.631Z,18.40
2018-12-23T09:04:42.137Z,19.50
2018-12-23T09:07:09.603Z,21.27
2018-12-23T09:09:37.086Z,13.30
2018-12-23T09:12:04.559Z,18.80
2018-12-23T09:14:32.035Z,14.00
2018-12-23T09:16:59.495Z,14.27
2018-12-23T09:19:26.945Z,20.17
2018-12-23T09:21:54.412Z,14.37
2018-12-23T09:24:21.936Z,14.20
2018-12-23T09:26:49.480Z,15.40
2018-12-23T09:29:16.951Z,16.00
2018-12-23T09:31:44.426Z,21.70
2018-12-23T09:34:11.912Z,18.03
2018-12-23T09:36:39.376Z,16.43
2018-12-23T09:39:06.871Z,12.47
2018-12-23T09:41:34.323Z,17.97
2018-12-23T09:44:01.786Z,14.80
2018-12-23T09:46:29.243Z,16.83
2018-12-23T09:48:56.924Z,17.77
2018-12-23T09:51:24.468Z,18.13
2018-12-23T09:53:51.950Z,13.87
2018-12-23T09:56:19.407Z,16.13
2018-12-23T09:58:46.874Z,17.77
2018-12-23T10:01:14.328Z,14.23
2018-12-23T10:03:41.804Z,15.17
2018-12-23T10:06:09.251Z,15.53
2018-12-23T10:08:36.717Z,19.57
2018-12-23T10:11:04.196Z,18.23
2018-12-23T10:13:31.674Z,15.63
2018-12-23T10:15:59.245Z,16.33
2018-12-23T10:18:26.702Z,17.47
2018-12-23T10:20:54.266Z,19.47
2018-12-23T10:23:21.756Z,19.83
2018-12-23T10:25:49.207Z,16.70
2018-12-23T10:28:17.656Z,22.23
2018-12-23T10:30:45.142Z,22.57
2018-12-23T10:33:12.666Z,18.87
2018-12-23T10:35:40.146Z,15.03
2018-12-23T10:38:07.624Z,17.60
2018-12-23T10:40:35.088Z,15.33
2018-12-23T10:43:02.533Z,19.17
2018-12-23T10:45:30.067Z,9.10
2018-12-23T10:47:57.569Z,16.33
2018-12-23T10:50:25.134Z,11.27
2018-12-23T10:52:52.616Z,15.87
2018-12-23T10:55:20.081Z,15.43
2018-12-23T10:57:47.546Z,16.73
2018-12-23T11:00:15.001Z,25.67
2018-12-23T11:02:42.581Z,18.57
2018-12-23T11:05:10.068Z,14.63
2018-12-23T11:07:37.565Z,17.67
2018-12-23T11:10:05.692Z,18.57
2018-12-23T11:12:33.173Z,15.53
2018-12-23T11:15:00.659Z,14.17
2018-12-23T11:17:28.124Z,16.63
2018-12-23T11:19:55.608Z,16.50
2018-12-23T11:22:23.066Z,21.43
2018-12-23T11:24:50.628Z,16.90
2018-12-23T11:27:18.081Z,12.03
2018-12-23T11:29:45.637Z,17.90
2018-12-23T11:32:13.108Z,19.50
2018-12-23T11:34:40.547Z,15.67
2018-12-23T11:37:08.011Z,13.23
2018-12-23T11:39:35.467Z,16.13
2018-12-23T11:42:02.938Z,14.73
2018-12-23T11:44:30.403Z,19.47
2018-12-23T11:46:57.863Z,14.60
2018-12-23T11:49:25.360Z,16.13
2018-12-23T11:51:52.813Z,14.07
2018-12-23T11:54:20.284Z,16.53
2018-12-23T11:56:47.759Z,11.23
2018-12-23T11:59:15.202Z,14.03
2018-12-23T12:01:42.809Z,19.03
2018-12-23T12:04:10.309Z,17.70
2018-12-23T12:06:37.774Z,15.63
2018-12-23T12:09:07.071Z,13.70
2018-12-23T12:11:34.868Z,14.03
2018-12-23T12:14:02.454Z,14.33
2018-12-23T12:16:30.026Z,11.50
2018-12-23T12:18:57.475Z,14.70
2018-12-23T12:21:24.981Z,12.63
2018-12-23T12:23:52.423Z,15.20
2018-12-23T12:26:19.896Z,16.77
2018-12-23T12:28:47.348Z,12.47
2018-12-23T12:31:14.816Z,10.93
2018-12-23T12:33:42.280Z,11.33
2018-12-23T12:36:09.744Z,15.10
2018-12-23T12:38:37.199Z,14.07
2018-12-23T12:41:04.686Z,15.77
2018-12-23T12:43:32.231Z,15.17
2018-12-23T12:46:00.695Z,11.47
2018-12-23T12:48:28.440Z,12.07
2018-12-23T12:50:55.957Z,17.60
2018-12-23T12:53:23.431Z,8.63
2018-12-23T12:55:50.976Z,20.87
2018-12-23T12:58:18.422Z,14.57
2018-12-23T13:00:45.884Z,21.10
2018-12-23T13:03:13.356Z,16.40
2018-12-23T13:05:40.847Z,18.53
2018-12-23T13:08:08.340Z,12.17
2018-12-23T13:10:35.797Z,18.40
2018-12-23T13:13:03.267Z,14.73
2018-12-23T13:15:30.737Z,15.77
2018-12-23T13:17:58.191Z,16.03
2018-12-23T13:20:25.656Z,13.60
2018-12-23T13:22:53.104Z,16.43
2018-12-23T13:25:20.625Z,14.43
2018-12-23T13:27:48.179Z,12.67
2018-12-23T13:30:15.635Z,12.70
2018-12-23T13:32:43.120Z,9.03
2018-12-23T13:35:10.603Z,13.53
2018-12-23T13:37:38.077Z,12.47
2018-12-23T13:40:10.212Z,14.23
2018-12-23T13:42:46.079Z,16.27
2018-12-23T13:45:18.960Z,14.00
2018-12-23T13:47:58.373Z,15.60
2018-12-23T13:50:35.599Z,16.43
2018-12-23T13:53:10.558Z,13.33
2018-12-23T13:55:47.925Z,14.33
2018-12-23T14:02:17.290Z,14.67
2018-12-23T14:04:58.405Z,15.53
2018-12-23T14:07:38.758Z,15.77
2018-12-23T14:10:19.877Z,16.03
2018-12-23T14:13:00.993Z,14.43
2018-12-23T14:15:42.383Z,12.47
2018-12-23T14:18:10.913Z,13.87
2018-12-23T14:20:59.100Z,12.57
2018-12-23T14:23:46.975Z,14.70
2018-12-23T14:26:35.181Z,17.63
2018-12-23T14:29:23.033Z,13.37
2018-12-23T14:32:10.909Z,15.77
2018-12-23T14:34:58.789Z,10.70
2018-12-23T14:37:46.932Z,12.27
2018-12-23T14:40:34.923Z,11.00
2018-12-23T14:43:22.888Z,11.00
2018-12-23T14:46:11.037Z,12.60
2018-12-23T14:48:58.921Z,9.57
2018-12-23T14:51:46.798Z,14.03
2018-12-23T14:54:34.656Z,12.23
2018-12-23T14:57:22.582Z,13.57
2018-12-23T15:00:10.501Z,10.80
2018-12-23T15:02:58.356Z,10.67
2018-12-23T15:05:39.562Z,15.67
2018-12-23T15:08:08.379Z,12.60
2018-12-23T15:10:56.272Z,11.53
2018-12-23T15:13:44.124Z,10.47
2018-12-23T15:16:32.175Z,9.87
2018-12-23T15:19:20.049Z,12.13
2018-12-23T15:22:08.240Z,14.83
2018-12-23T15:24:56.365Z,10.57
2018-12-23T15:27:44.220Z,14.83
2018-12-23T15:30:32.115Z,15.50
2018-12-23T15:33:00.635Z,15.63
2018-12-23T15:35:29.153Z,12.93
2018-12-23T15:38:17.380Z,16.93
2018-12-23T15:41:05.240Z,15.37
2018-12-23T15:43:53.108Z,15.73
2018-12-23T15:46:40.989Z,16.77
2018-12-23T15:49:28.829Z,21.23
2018-12-23T15:52:16.706Z,16.50
2018-12-23T15:55:05.081Z,15.93
2018-12-23T15:57:45.502Z,19.73
2018-12-23T16:00:25.969Z,17.93
2018-12-23T16:03:07.086Z,18.47
2018-12-23T16:05:48.529Z,20.67
2018-12-23T16:08:17.060Z,17.50
2018-12-23T16:11:05.195Z,19.93
2018-12-23T16:13:53.112Z,16.47
2018-12-23T16:16:40.968Z,15.40
2018-12-23T16:19:28.837Z,26.17
2018-12-23T16:22:16.685Z,20.53
2018-12-23T16:25:05.057Z,18.97
2018-12-23T16:27:53.178Z,15.57
2018-12-23T16:30:41.045Z,19.07
2018-12-23T16:33:28.933Z,21.30
2018-12-23T16:36:16.780Z,18.50
2018-12-23T16:39:25.373Z,24.47
2018-12-23T16:42:13.262Z,20.00
2018-12-23T16:45:01.121Z,20.70
2018-12-23T16:47:48.972Z,20.17
2018-12-23T16:50:37.086Z,22.27
2018-12-23T16:53:24.948Z,18.93
2018-12-23T16:56:12.837Z,20.60
2018-12-23T16:58:53.498Z,17.90
2018-12-23T17:01:22.022Z,19.13
2018-12-23T17:04:09.889Z,20.07
2018-12-23T17:06:58.008Z,16.70
2018-12-23T17:09:45.889Z,21.20
2018-12-23T17:12:33.738Z,20.27
2018-12-23T17:15:21.606Z,15.50
2018-12-23T17:18:09.459Z,21.37
2018-12-23T17:20:57.597Z,17.97
2018-12-23T17:23:45.445Z,17.27
2018-12-23T17:26:33.322Z,21.30
2018-12-23T17:29:21.169Z,20.43
2018-12-23T17:32:09.046Z,27.07
2018-12-23T17:34:57.193Z,18.30
2018-12-23T17:37:45.317Z,17.73
2018-12-23T17:40:33.165Z,16.47
2018-12-23T17:43:21.040Z,17.80
2018-12-23T17:46:08.904Z,18.93
2018-12-23T17:48:56.768Z,22.13
2018-12-23T17:51:44.711Z,20.57
2018-12-23T17:54:32.553Z,18.50
2018-12-23T17:57:20.429Z,5.23
2018-12-23T17:59:48.941Z,6.60
2018-12-23T18:02:36.997Z,15.80
2018-12-23T18:05:24.838Z,6.57
2018-12-23T18:08:12.704Z,5.67
2018-12-23T18:11:00.557Z,5.63
2018-12-23T18:13:29.093Z,4.03
2018-12-23T18:16:16.981Z,7.30
2018-12-23T18:19:04.885Z,6.53
2018-12-23T18:21:52.728Z,5.30
2018-12-23T18:24:40.610Z,7.53
2018-12-23T18:27:28.453Z,5.20
2018-12-23T18:30:16.560Z,6.40
2018-12-23T18:32:56.877Z,6.77
2018-12-23T18:35:37.569Z,7.70
2018-12-23T18:38:18.444Z,9.60
2018-12-23T18:40:59.749Z,6.83
2018-12-23T18:43:40.776Z,6.63
2018-12-23T18:46:21.178Z,8.97
2018-12-23T18:49:01.483Z,7.03
2018-12-23T18:51:42.512Z,8.00
2018-12-23T18:54:23.644Z,7.80
2018-12-23T18:57:04.844Z,6.40
2018-12-23T18:59:46.136Z,6.37
2018-12-23T19:02:27.577Z,5.73
2018-12-23T19:05:08.613Z,5.77
2018-12-23T19:07:49.941Z,5.90
2018-12-23T19:10:30.886Z,8.17
2018-12-23T19:13:12.242Z,6.13
2018-12-23T19:15:52.946Z,6.50
2018-12-23T19:18:34.073Z,9.30
2018-12-23T19:21:15.224Z,5.43
2018-12-23T19:24:16.074Z,5.57
2018-12-23T19:27:23.240Z,3.77
2018-12-23T19:30:31.845Z,6.20
2018-12-23T19:33:39.008Z,11.83
2018-12-23T19:36:47.609Z,5.67
2018-12-23T19:39:54.784Z,8.80
2018-12-23T19:43:03.391Z,5.17
2018-12-23T19:46:12.214Z,8.93
2018-12-23T19:49:19.528Z,5.97
2018-12-23T19:52:26.701Z,8.57
2018-12-23T19:55:35.552Z,11.90
2018-12-23T19:58:42.726Z,6.77
2018-12-23T20:01:23.117Z,7.13
2018-12-23T20:04:03.529Z,6.83
2018-12-23T20:06:49.725Z,6.63
2018-12-23T20:09:58.323Z,8.47
2018-12-23T20:13:05.514Z,5.17
2018-12-23T20:16:12.696Z,9.43
2018-12-23T20:19:19.899Z,9.10
2018-12-23T20:22:27.086Z,9.33
2018-12-23T20:25:34.509Z,7.77
2018-12-23T20:28:43.135Z,10.17
2018-12-23T20:31:50.302Z,8.87
2018-12-23T20:34:58.933Z,9.77
2018-12-23T20:37:39.464Z,9.97
2018-12-23T20:40:20.656Z,9.80
2018-12-23T20:43:01.088Z,9.97
2018-12-23T20:45:42.433Z,9.40
2018-12-23T20:48:23.177Z,10.23
2018-12-23T20:51:04.417Z,12.40
2018-12-23T20:53:45.073Z,10.70
2018-12-23T20:56:31.444Z,9.27
2018-12-23T20:59:40.275Z,9.87
2018-12-23T21:02:47.674Z,12.20
2018-12-23T21:05:56.314Z,11.37
2018-12-23T21:09:04.932Z,11.30
2018-12-23T21:12:12.134Z,11.10
2018-12-23T21:15:20.705Z,9.87
2018-12-23T21:18:28.197Z,10.23
2018-12-23T21:21:35.385Z,12.40
2018-12-23T21:24:42.557Z,11.37
2018-12-23T21:27:49.785Z,11.63
2018-12-23T21:30:58.397Z,12.17
2018-12-23T21:34:05.588Z,14.97
2018-12-23T21:36:46.665Z,13.07
2018-12-23T21:39:27.628Z,8.60
2018-12-23T21:42:08.754Z,9.87
2018-12-23T21:44:49.366Z,9.80
2018-12-23T21:47:30.474Z,8.90
2018-12-23T21:50:11.452Z,12.33
2018-12-23T21:52:54.672Z,11.10
2018-12-23T21:56:01.874Z,10.53
2018-12-23T21:59:09.328Z,11.73
2018-12-23T22:02:16.519Z,9.33
2018-12-23T22:05:23.712Z,8.03
2018-12-23T22:08:30.948Z,8.13
2018-12-23T22:11:39.516Z,6.77
2018-12-23T22:14:27.393Z,3.10
2018-12-23T22:17:15.258Z,2.67
2018-12-23T22:20:03.472Z,1.87
2018-12-23T22:22:51.341Z,8.27
2018-12-23T22:25:39.538Z,7.07
2018-12-23T22:28:27.411Z,6.93
2018-12-23T22:31:15.274Z,4.53
2018-12-23T22:34:03.469Z,8.33
2018-12-23T22:36:44.447Z,3.00
2018-12-23T22:39:13.322Z,7.47
2018-12-23T22:42:01.396Z,5.83
2018-12-23T22:44:49.253Z,6.73
2018-12-23T22:47:37.130Z,2.13
2018-12-23T22:50:24.998Z,2.47
2018-12-23T22:53:12.848Z,5.97
2018-12-23T22:56:00.716Z,6.27
2018-12-23T22:58:48.589Z,7.90
2018-12-23T23:01:39.880Z,10.53
2018-12-23T23:04:26.070Z,2.33
2018-12-23T23:07:14.044Z,8.47
2018-12-23T23:10:02.230Z,2.70
2018-12-23T23:12:50.120Z,1.77
2018-12-23T23:15:38.322Z,10.17
2018-12-23T23:18:26.421Z,8.63
2018-12-23T23:21:28.456Z,8.03
2018-12-23T23:23:56.816Z,8.10
2018-12-23T23:26:37.357Z,4.77
2018-12-23T23:29:17.622Z,8.17
2018-12-23T23:31:58.117Z,5.80
2018-12-23T23:34:39.353Z,2.50
2018-12-23T23:37:07.888Z,2.60
2018-12-23T23:39:55.761Z,2.83
2018-12-23T23:42:43.641Z,1.70
2018-12-23T23:45:31.485Z,1.97
2018-12-23T23:48:19.355Z,1.53
2018-12-23T23:51:07.475Z,1.90
2018-12-23T23:53:55.340Z,1.60
2018-12-23T23:56:43.196Z,1.73
2018-12-23T23:59:31.072Z,4.10
